createdAt,value
2022-11-24T00:06:14.320Z,12.05
2022-11-24T00:08:42.573Z,12.16
2022-11-24T00:13:39.214Z,12.19
2022-11-24T00:16:07.393Z,12.19
2022-11-24T00:21:03.978Z,12.22
2022-11-24T00:32:19.794Z,12.09
2022-11-24T00:34:48.073Z,12.12
2022-11-24T00:44:41.162Z,12.03
2022-11-24T00:49:37.750Z,11.98
2022-11-24T00:54:34.614Z,12.04
2022-11-24T00:59:30.821Z,11.98
2022-11-24T01:04:27.382Z,11.97
2022-11-24T01:09:23.919Z,11.99
2022-11-24T01:14:20.504Z,11.91
2022-11-24T01:16:48.729Z,11.86
2022-11-24T01:24:13.624Z,11.9
2022-11-24T01:30:32.901Z,11.81
2022-11-24T01:35:29.436Z,11.85
2022-11-24T01:42:54.275Z,11.93
2022-11-24T01:45:22.528Z,11.94
2022-11-24T01:50:19.101Z,11.92
2022-11-24T01:55:15.632Z,11.97
2022-11-24T02:02:40.498Z,12.09
2022-11-24T02:05:08.760Z,12.08
2022-11-24T02:10:05.320Z,12.08
2022-11-24T02:15:01.825Z,12.15
2022-11-24T02:21:21.146Z,12.13
2022-11-24T02:26:17.716Z,12.18
2022-11-24T02:31:14.280Z,12.16
2022-11-24T02:36:10.788Z,12.04
2022-11-24T02:41:07.327Z,12.01
2022-11-24T02:46:03.959Z,11.96
2022-11-24T02:51:00.433Z,11.95
2022-11-24T02:55:57.038Z,11.98
2022-11-24T03:00:53.567Z,11.9
2022-11-24T03:05:50.119Z,11.91
2022-11-24T03:10:46.657Z,12
2022-11-24T03:15:43.257Z,11.96
2022-11-24T03:22:02.497Z,12
2022-11-24T03:26:59.045Z,12.01
2022-11-24T03:31:55.599Z,12.06
2022-11-24T03:39:20.411Z,12.08
2022-11-24T03:41:48.688Z,12.1
2022-11-24T03:46:45.306Z,11.95
2022-11-24T03:51:41.803Z,11.85
2022-11-24T03:59:06.629Z,11.88
2022-11-24T04:01:34.961Z,11.96
2022-11-24T04:06:31.443Z,12.02
2022-11-24T04:11:28.005Z,12.11
2022-11-24T04:18:52.854Z,12.03
2022-11-24T04:21:21.091Z,11.66
2022-11-24T04:26:17.686Z,12.05
2022-11-24T04:31:14.311Z,12.06
2022-11-24T04:39:20.565Z,12.13
2022-11-24T04:41:07.316Z,12.02
2022-11-24T04:46:03.925Z,12.07
2022-11-24T04:52:23.185Z,11.9
2022-11-24T04:57:19.680Z,11.87
2022-11-24T05:02:16.243Z,11.93
2022-11-24T05:07:16.554Z,11.96
2022-11-24T05:12:09.357Z,11.95
2022-11-24T05:17:05.925Z,11.97
2022-11-24T05:22:02.445Z,12
2022-11-24T05:26:59.036Z,11.94
2022-11-24T05:31:55.613Z,11.94
2022-11-24T05:36:52.131Z,12.03
2022-11-24T05:41:48.703Z,12.15
2022-11-24T05:46:45.282Z,12.09
2022-11-24T05:55:32.806Z,12.11
2022-11-24T05:58:01.049Z,12.03
2022-11-24T06:02:57.721Z,12.06
2022-11-24T06:07:54.302Z,12.06
2022-11-24T06:15:19.009Z,12.06
2022-11-24T06:17:47.287Z,11.94
2022-11-24T06:25:12.118Z,11.97
2022-11-24T06:27:40.361Z,12.04
2022-11-24T06:32:36.945Z,12.06
2022-11-24T06:37:33.491Z,11.99
2022-11-24T06:42:30.005Z,12.07
2022-11-24T06:47:26.584Z,12.04
2022-11-24T06:49:54.868Z,12.05
2022-11-24T06:54:51.376Z,12.11
2022-11-24T07:03:38.971Z,12.07
2022-11-24T07:08:35.530Z,12
2022-11-24T07:13:32.098Z,12
2022-11-24T07:18:28.601Z,11.93
2022-11-24T07:23:25.159Z,12.02
2022-11-24T07:28:21.752Z,11.77
2022-11-24T07:33:18.269Z,11.97
2022-11-24T07:38:14.831Z,12.02
2022-11-24T07:43:14.623Z,12.01
2022-11-24T07:48:07.943Z,12.06
2022-11-24T07:54:27.227Z,12.06
2022-11-24T07:59:23.802Z,12.04
2022-11-24T08:04:20.354Z,12.09
2022-11-24T08:11:45.181Z,12.11
2022-11-24T08:14:13.426Z,12.13
2022-11-24T08:19:09.984Z,12.17
2022-11-24T08:24:06.539Z,12.01
2022-11-24T08:31:31.422Z,12.11
2022-11-24T08:33:59.640Z,12.1
2022-11-24T08:38:56.189Z,12.13
2022-11-24T08:43:52.765Z,12.14
2022-11-24T08:51:17.603Z,12.19
2022-11-24T08:53:45.820Z,12.23
2022-11-24T08:58:42.503Z,12.26
2022-11-24T09:03:41.217Z,12.28
2022-11-24T09:09:58.260Z,12.22
2022-11-24T09:14:54.775Z,12.28
2022-11-24T09:19:51.333Z,12.3
2022-11-24T09:24:47.908Z,12.34
2022-11-24T09:29:44.437Z,12.25
2022-11-24T09:34:40.961Z,12.26
2022-11-24T09:39:37.558Z,12.28
2022-11-24T09:44:34.102Z,12.19
2022-11-24T09:49:30.646Z,12.16
2022-11-24T09:54:27.158Z,12.2
2022-11-24T09:59:23.737Z,12.26
2022-11-24T10:04:20.297Z,12.2
2022-11-24T10:10:39.579Z,12.24
2022-11-24T10:15:36.198Z,12.27
2022-11-24T10:20:32.694Z,12.31
2022-11-24T10:27:57.515Z,12.32
2022-11-24T10:35:22.561Z,12
2022-11-24T10:40:40.840Z,12.35
2022-11-24T10:47:43.761Z,12.35
2022-11-24T10:50:12.009Z,12.43
2022-11-24T10:55:08.568Z,12.55
2022-11-24T10:57:36.834Z,12.65
2022-11-24T11:02:33.441Z,12.88
2022-11-24T11:07:29.999Z,13.11
2022-11-24T11:12:43.708Z,13.38
2022-11-24T11:17:23.010Z,13.69
2022-11-24T11:23:42.330Z,13.98
2022-11-24T11:28:38.882Z,14.12
2022-11-24T11:34:04.488Z,14.16
2022-11-24T11:38:31.978Z,14.13
2022-11-24T11:43:28.510Z,14.08
2022-11-24T11:48:25.087Z,14.12
2022-11-24T11:53:21.633Z,13.8
2022-11-24T11:58:18.209Z,14.18
2022-11-24T12:05:43.030Z,14.2
2022-11-24T12:08:14.654Z,14.15
2022-11-24T12:13:07.869Z,14.14
2022-11-24T12:18:04.388Z,14.04
2022-11-24T12:25:29.218Z,13.93
2022-11-24T12:27:57.493Z,13.92
2022-11-24T12:32:54.034Z,14.11
2022-11-24T12:35:22.338Z,13.92
2022-11-24T12:40:18.878Z,14.43
2022-11-24T12:49:06.481Z,14.78
2022-11-24T12:54:02.980Z,15.06
2022-11-24T12:58:59.538Z,15.35
2022-11-24T13:03:56.072Z,15.61
2022-11-24T13:08:52.642Z,15.86
2022-11-24T13:13:49.196Z,16.04
2022-11-24T13:18:45.761Z,16.03
2022-11-24T13:23:42.305Z,16.19
2022-11-24T13:29:00.603Z,16.36
2022-11-24T13:33:35.417Z,16.52
2022-11-24T13:36:03.714Z,16.64
2022-11-24T13:43:28.513Z,16.86
2022-11-24T13:49:47.808Z,17.19
2022-11-24T13:54:44.345Z,17.62
2022-11-24T13:59:40.939Z,17.77
2022-11-24T14:04:37.480Z,17.62
2022-11-24T14:09:34.023Z,17.59
2022-11-24T14:14:30.541Z,17.62
2022-11-24T14:21:55.422Z,17.7
2022-11-24T14:24:23.698Z,17.74
2022-11-24T14:29:20.227Z,17.62
2022-11-24T14:34:16.799Z,16.84
2022-11-24T14:40:36.089Z,16.54
2022-11-24T14:45:32.641Z,16.37
2022-11-24T14:50:29.184Z,16.37
2022-11-24T14:55:25.692Z,16.28
2022-11-24T15:00:22.269Z,15.74
2022-11-24T15:05:18.806Z,15.96
2022-11-24T15:10:15.346Z,15.75
2022-11-24T15:15:11.944Z,15.56
2022-11-24T15:20:08.474Z,15.42
2022-11-24T15:25:05.102Z,15.27
2022-11-24T15:30:01.574Z,15.13
2022-11-24T15:34:58.164Z,14.95
2022-11-24T15:39:54.666Z,14.87
2022-11-24T15:42:22.977Z,14.72
2022-11-24T15:51:10.523Z,14.5
2022-11-24T15:58:35.346Z,14.39
2022-11-24T16:01:03.705Z,14.3
2022-11-24T16:06:00.201Z,14.18
2022-11-24T16:10:56.750Z,14.08
2022-11-24T16:18:21.565Z,14.05
2022-11-24T16:20:49.807Z,13.91
2022-11-24T16:25:46.406Z,13.77
2022-11-24T16:30:42.952Z,13.76
2022-11-24T16:38:07.760Z,13.61
2022-11-24T16:40:36.033Z,13.54
2022-11-24T16:45:32.591Z,13.47
2022-11-24T16:50:29.167Z,13.38
2022-11-24T16:52:57.432Z,13.35
2022-11-24T16:57:53.968Z,13.33
2022-11-24T17:06:41.543Z,13.17
2022-11-24T17:11:38.080Z,13.1
2022-11-24T17:16:34.742Z,13.01
2022-11-24T17:21:31.228Z,12.92
2022-11-24T17:26:27.742Z,12.82
2022-11-24T17:31:24.334Z,12.76
2022-11-24T17:36:20.849Z,12.76
2022-11-24T17:41:17.403Z,12.67
2022-11-24T17:46:14.007Z,12.58
2022-11-24T17:51:10.615Z,12.42
2022-11-24T17:57:29.794Z,12.31
2022-11-24T18:02:26.388Z,12.24
2022-11-24T18:07:22.912Z,12.22
2022-11-24T18:14:47.705Z,12.26
2022-11-24T18:17:16.001Z,12.17
2022-11-24T18:22:12.553Z,12.18
2022-11-24T18:27:09.100Z,12.19
2022-11-24T18:34:34.091Z,12.25
2022-11-24T18:37:02.207Z,12.3
2022-11-24T18:41:58.780Z,12.23
2022-11-24T18:46:55.284Z,12.14
2022-11-24T18:51:51.862Z,12.13
2022-11-24T18:58:11.149Z,12.07
2022-11-24T19:03:07.689Z,11.97
2022-11-24T19:08:04.226Z,11.87
2022-11-24T19:13:00.768Z,11.91
2022-11-24T19:17:57.366Z,11.8
2022-11-24T19:22:53.895Z,11.84
2022-11-24T19:27:50.441Z,11.85
2022-11-24T19:32:47.003Z,11.87
2022-11-24T19:37:43.516Z,11.82
2022-11-24T19:42:40.121Z,11.81
2022-11-24T19:47:36.669Z,11.76
2022-11-24T19:52:33.191Z,11.65
2022-11-24T19:58:52.500Z,11.63
2022-11-24T20:03:49.044Z,11.56
2022-11-24T20:11:13.867Z,11.52
2022-11-24T20:13:42.149Z,11.43
2022-11-24T20:18:41.894Z,11.45
2022-11-24T20:23:35.256Z,11.46
2022-11-24T20:28:31.834Z,11.43
2022-11-24T20:33:28.317Z,11.41
2022-11-24T20:38:24.909Z,11.28
2022-11-24T20:43:21.435Z,11.01
2022-11-24T20:50:51.087Z,11.12
2022-11-24T20:53:14.588Z,11.09
2022-11-24T20:59:33.874Z,11.11
2022-11-24T21:04:30.381Z,11.05
2022-11-24T21:09:26.966Z,11.01
2022-11-24T21:14:23.551Z,10.98
2022-11-24T21:19:21.092Z,10.99
2022-11-24T21:24:16.597Z,10.87
2022-11-24T21:29:13.140Z,10.8
2022-11-24T21:34:09.711Z,10.68
2022-11-24T21:39:06.328Z,10.71
2022-11-24T21:44:02.814Z,10.64
2022-11-24T21:48:59.356Z,10.73
2022-11-24T21:53:55.909Z,10.79
2022-11-24T21:58:52.462Z,10.69
2022-11-24T22:03:49.025Z,10.66
2022-11-24T22:08:45.565Z,10.68
2022-11-24T22:11:13.838Z,10.63
2022-11-24T22:16:10.408Z,10.43
2022-11-24T22:27:26.234Z,10.34
2022-11-24T22:29:54.534Z,10.43
2022-11-24T22:34:51.049Z,10.42
2022-11-24T22:39:47.596Z,10.42
2022-11-24T22:47:12.434Z,10.36
2022-11-24T22:49:40.725Z,10.3
2022-11-24T22:54:37.523Z,10.2
2022-11-24T22:59:33.794Z,10.13
2022-11-24T23:04:30.460Z,10.06
2022-11-24T23:09:26.945Z,10.1
2022-11-24T23:20:43.066Z,10.22
2022-11-24T23:25:39.326Z,10.18
2022-11-24T23:30:35.875Z,10.16
2022-11-24T23:35:32.410Z,10.21
2022-11-24T23:40:28.974Z,10.18
2022-11-24T23:45:25.559Z,10.24
2022-11-24T23:50:22.115Z,9.89
2022-11-24T23:55:18.599Z,10.14
